sensor_id;sensor_type;location;lat;lon;timestamp;P1;durP1;ratioP1;P2;durP2;ratioP2
24567;SDS011;12731;52.182;8.716;2022-11-20T00:01:27;28.42;;;18.40;;
24567;SDS011;12731;52.182;8.716;2022-11-20T00:03:55;25.83;;;16.60;;
24567;SDS011;12731;52.182;8.716;2022-11-20T00:06:22;27.27;;;15.43;;
24567;SDS011;12731;52.182;8.716;2022-11-20T00:08:49;27.05;;;16.48;;
24567;SDS011;12731;52.182;8.716;2022-11-20T00:11:17;25.65;;;15.77;;
24567;SDS011;12731;52.182;8.716;2022-11-20T00:13:46;24.00;;;16.10;;
24567;SDS011;12731;52.182;8.716;2022-11-20T00:16:15;22.50;;;14.88;;
24567;SDS011;12731;52.182;8.716;2022-11-20T00:18:44;26.80;;;16.85;;
24567;SDS011;12731;52.182;8.716;2022-11-20T00:21:12;25.05;;;16.77;;
24567;SDS011;12731;52.182;8.716;2022-11-20T00:23:43;22.50;;;15.35;;
24567;SDS011;12731;52.182;8.716;2022-11-20T00:26:10;23.83;;;16.15;;
24567;SDS011;12731;52.182;8.716;2022-11-20T00:28:38;27.13;;;17.15;;
24567;SDS011;12731;52.182;8.716;2022-11-20T00:31:06;25.98;;;17.35;;
24567;SDS011;12731;52.182;8.716;2022-11-20T00:33:42;23.40;;;16.17;;
24567;SDS011;12731;52.182;8.716;2022-11-20T00:36:09;25.52;;;16.85;;
24567;SDS011;12731;52.182;8.716;2022-11-20T00:38:37;25.17;;;16.52;;
24567;SDS011;12731;52.182;8.716;2022-11-20T00:41:06;25.98;;;16.75;;
24567;SDS011;12731;52.182;8.716;2022-11-20T00:43:34;27.92;;;18.50;;
24567;SDS011;12731;52.182;8.716;2022-11-20T00:46:02;27.77;;;18.40;;
24567;SDS011;12731;52.182;8.716;2022-11-20T00:48:30;28.55;;;19.40;;
24567;SDS011;12731;52.182;8.716;2022-11-20T00:50:57;29.35;;;19.58;;
24567;SDS011;12731;52.182;8.716;2022-11-20T00:53:24;28.33;;;18.70;;
24567;SDS011;12731;52.182;8.716;2022-11-20T00:55:57;30.73;;;19.90;;
24567;SDS011;12731;52.182;8.716;2022-11-20T00:58:28;32.17;;;20.92;;
24567;SDS011;12731;52.182;8.716;2022-11-20T01:03:36;31.00;;;19.52;;
24567;SDS011;12731;52.182;8.716;2022-11-20T01:06:06;30.17;;;19.88;;
24567;SDS011;12731;52.182;8.716;2022-11-20T01:08:34;28.45;;;18.60;;
24567;SDS011;12731;52.182;8.716;2022-11-20T01:11:01;29.50;;;19.00;;
24567;SDS011;12731;52.182;8.716;2022-11-20T01:13:30;30.27;;;20.67;;
24567;SDS011;12731;52.182;8.716;2022-11-20T01:18:35;31.17;;;19.63;;
24567;SDS011;12731;52.182;8.716;2022-11-20T01:21:03;32.58;;;20.13;;
24567;SDS011;12731;52.182;8.716;2022-11-20T01:23:34;31.10;;;20.53;;
24567;SDS011;12731;52.182;8.716;2022-11-20T01:26:03;30.90;;;18.75;;
24567;SDS011;12731;52.182;8.716;2022-11-20T01:28:30;29.27;;;18.88;;
24567;SDS011;12731;52.182;8.716;2022-11-20T01:30:57;28.92;;;18.83;;
24567;SDS011;12731;52.182;8.716;2022-11-20T01:33:24;29.70;;;19.52;;
24567;SDS011;12731;52.182;8.716;2022-11-20T01:35:50;31.08;;;20.60;;
24567;SDS011;12731;52.182;8.716;2022-11-20T01:38:17;31.83;;;19.85;;
24567;SDS011;12731;52.182;8.716;2022-11-20T01:40:44;35.38;;;22.27;;
24567;SDS011;12731;52.182;8.716;2022-11-20T01:43:14;36.75;;;23.65;;
24567;SDS011;12731;52.182;8.716;2022-11-20T01:45:56;35.80;;;23.23;;
24567;SDS011;12731;52.182;8.716;2022-11-20T01:48:23;41.65;;;24.88;;
24567;SDS011;12731;52.182;8.716;2022-11-20T01:50:51;38.70;;;26.17;;
24567;SDS011;12731;52.182;8.716;2022-11-20T01:53:18;43.47;;;25.88;;
24567;SDS011;12731;52.182;8.716;2022-11-20T01:55:49;41.70;;;26.27;;
24567;SDS011;12731;52.182;8.716;2022-11-20T01:58:18;41.67;;;25.73;;
24567;SDS011;12731;52.182;8.716;2022-11-20T02:00:47;44.85;;;26.92;;
24567;SDS011;12731;52.182;8.716;2022-11-20T02:03:15;43.88;;;27.23;;
24567;SDS011;12731;52.182;8.716;2022-11-20T02:05:50;41.67;;;26.33;;
24567;SDS011;12731;52.182;8.716;2022-11-20T02:08:20;44.75;;;28.40;;
24567;SDS011;12731;52.182;8.716;2022-11-20T02:10:47;45.20;;;28.00;;
24567;SDS011;12731;52.182;8.716;2022-11-20T02:13:14;44.58;;;29.13;;
24567;SDS011;12731;52.182;8.716;2022-11-20T02:15:59;46.05;;;29.15;;
24567;SDS011;12731;52.182;8.716;2022-11-20T02:18:26;49.17;;;28.98;;
24567;SDS011;12731;52.182;8.716;2022-11-20T02:20:58;43.33;;;27.15;;
24567;SDS011;12731;52.182;8.716;2022-11-20T02:23:33;46.22;;;28.95;;
24567;SDS011;12731;52.182;8.716;2022-11-20T02:26:05;45.47;;;28.48;;
24567;SDS011;12731;52.182;8.716;2022-11-20T02:28:33;45.03;;;28.10;;
24567;SDS011;12731;52.182;8.716;2022-11-20T02:31:00;42.00;;;27.80;;
24567;SDS011;12731;52.182;8.716;2022-11-20T02:33:27;43.28;;;28.35;;
24567;SDS011;12731;52.182;8.716;2022-11-20T02:35:53;48.70;;;29.17;;
24567;SDS011;12731;52.182;8.716;2022-11-20T02:38:20;45.80;;;27.88;;
24567;SDS011;12731;52.182;8.716;2022-11-20T02:40:46;43.78;;;28.73;;
24567;SDS011;12731;52.182;8.716;2022-11-20T02:43:20;46.05;;;29.05;;
24567;SDS011;12731;52.182;8.716;2022-11-20T02:45:46;44.92;;;27.55;;
24567;SDS011;12731;52.182;8.716;2022-11-20T02:48:13;44.40;;;29.55;;
24567;SDS011;12731;52.182;8.716;2022-11-20T02:50:39;45.03;;;29.50;;
24567;SDS011;12731;52.182;8.716;2022-11-20T02:53:06;44.53;;;29.73;;
24567;SDS011;12731;52.182;8.716;2022-11-20T02:55:32;50.85;;;32.03;;
24567;SDS011;12731;52.182;8.716;2022-11-20T02:57:59;52.28;;;31.45;;
24567;SDS011;12731;52.182;8.716;2022-11-20T03:00:25;49.38;;;32.45;;
24567;SDS011;12731;52.182;8.716;2022-11-20T03:02:52;54.55;;;32.33;;
24567;SDS011;12731;52.182;8.716;2022-11-20T03:05:18;52.80;;;34.10;;
24567;SDS011;12731;52.182;8.716;2022-11-20T03:07:45;53.53;;;35.38;;
24567;SDS011;12731;52.182;8.716;2022-11-20T03:10:11;57.05;;;34.28;;
24567;SDS011;12731;52.182;8.716;2022-11-20T03:12:37;56.63;;;33.55;;
24567;SDS011;12731;52.182;8.716;2022-11-20T03:15:04;53.25;;;34.78;;
24567;SDS011;12731;52.182;8.716;2022-11-20T03:17:31;52.45;;;31.88;;
24567;SDS011;12731;52.182;8.716;2022-11-20T03:19:57;53.15;;;30.90;;
24567;SDS011;12731;52.182;8.716;2022-11-20T03:22:24;50.08;;;31.55;;
24567;SDS011;12731;52.182;8.716;2022-11-20T03:24:50;48.58;;;32.00;;
24567;SDS011;12731;52.182;8.716;2022-11-20T03:27:17;50.63;;;31.67;;
24567;SDS011;12731;52.182;8.716;2022-11-20T03:29:43;48.88;;;31.85;;
24567;SDS011;12731;52.182;8.716;2022-11-20T03:32:10;46.63;;;30.20;;
24567;SDS011;12731;52.182;8.716;2022-11-20T03:34:36;49.13;;;30.75;;
24567;SDS011;12731;52.182;8.716;2022-11-20T03:37:03;47.22;;;30.55;;
24567;SDS011;12731;52.182;8.716;2022-11-20T03:39:29;55.65;;;32.25;;
24567;SDS011;12731;52.182;8.716;2022-11-20T03:41:55;50.70;;;30.70;;
24567;SDS011;12731;52.182;8.716;2022-11-20T03:44:22;46.78;;;29.02;;
24567;SDS011;12731;52.182;8.716;2022-11-20T03:46:48;44.65;;;28.73;;
24567;SDS011;12731;52.182;8.716;2022-11-20T03:49:15;45.75;;;28.48;;
24567;SDS011;12731;52.182;8.716;2022-11-20T03:51:41;48.70;;;29.35;;
24567;SDS011;12731;52.182;8.716;2022-11-20T03:54:08;43.47;;;27.45;;
24567;SDS011;12731;52.182;8.716;2022-11-20T03:56:35;39.85;;;27.17;;
24567;SDS011;12731;52.182;8.716;2022-11-20T03:59:03;46.38;;;28.40;;
24567;SDS011;12731;52.182;8.716;2022-11-20T04:01:31;46.75;;;27.52;;
24567;SDS011;12731;52.182;8.716;2022-11-20T04:03:59;41.83;;;26.85;;
24567;SDS011;12731;52.182;8.716;2022-11-20T04:06:26;42.63;;;27.80;;
24567;SDS011;12731;52.182;8.716;2022-11-20T04:08:59;41.92;;;27.85;;
24567;SDS011;12731;52.182;8.716;2022-11-20T04:11:30;43.92;;;27.67;;
24567;SDS011;12731;52.182;8.716;2022-11-20T04:13:58;44.92;;;27.58;;
24567;SDS011;12731;52.182;8.716;2022-11-20T04:16:26;44.40;;;28.13;;
24567;SDS011;12731;52.182;8.716;2022-11-20T04:18:55;38.72;;;26.70;;
24567;SDS011;12731;52.182;8.716;2022-11-20T04:21:23;46.65;;;28.52;;
24567;SDS011;12731;52.182;8.716;2022-11-20T04:23:50;46.00;;;27.75;;
24567;SDS011;12731;52.182;8.716;2022-11-20T04:26:16;46.25;;;29.33;;
24567;SDS011;12731;52.182;8.716;2022-11-20T04:28:43;48.88;;;28.33;;
24567;SDS011;12731;52.182;8.716;2022-11-20T04:31:14;44.95;;;28.33;;
24567;SDS011;12731;52.182;8.716;2022-11-20T04:33:41;45.30;;;28.58;;
24567;SDS011;12731;52.182;8.716;2022-11-20T04:36:21;45.22;;;28.67;;
24567;SDS011;12731;52.182;8.716;2022-11-20T04:38:53;45.15;;;29.00;;
24567;SDS011;12731;52.182;8.716;2022-11-20T04:41:23;46.85;;;28.17;;
24567;SDS011;12731;52.182;8.716;2022-11-20T04:43:51;48.38;;;28.85;;
24567;SDS011;12731;52.182;8.716;2022-11-20T04:46:19;48.90;;;31.02;;
24567;SDS011;12731;52.182;8.716;2022-11-20T04:48:46;49.97;;;30.27;;
24567;SDS011;12731;52.182;8.716;2022-11-20T04:51:13;46.55;;;29.02;;
24567;SDS011;12731;52.182;8.716;2022-11-20T04:53:40;48.20;;;29.85;;
24567;SDS011;12731;52.182;8.716;2022-11-20T04:56:07;46.53;;;28.77;;
24567;SDS011;12731;52.182;8.716;2022-11-20T04:58:35;42.72;;;27.02;;
24567;SDS011;12731;52.182;8.716;2022-11-20T05:01:09;35.90;;;24.52;;
24567;SDS011;12731;52.182;8.716;2022-11-20T05:03:40;37.78;;;23.77;;
24567;SDS011;12731;52.182;8.716;2022-11-20T05:06:08;33.58;;;20.73;;
24567;SDS011;12731;52.182;8.716;2022-11-20T05:08:36;29.08;;;18.95;;
24567;SDS011;12731;52.182;8.716;2022-11-20T05:11:03;32.55;;;20.65;;
24567;SDS011;12731;52.182;8.716;2022-11-20T05:13:34;34.22;;;20.83;;
24567;SDS011;12731;52.182;8.716;2022-11-20T05:16:04;34.15;;;21.35;;
24567;SDS011;12731;52.182;8.716;2022-11-20T05:18:41;30.95;;;20.75;;
24567;SDS011;12731;52.182;8.716;2022-11-20T05:21:08;34.00;;;22.42;;
24567;SDS011;12731;52.182;8.716;2022-11-20T05:23:36;36.28;;;21.27;;
24567;SDS011;12731;52.182;8.716;2022-11-20T05:26:03;33.63;;;21.42;;
24567;SDS011;12731;52.182;8.716;2022-11-20T05:28:30;33.40;;;21.40;;
24567;SDS011;12731;52.182;8.716;2022-11-20T05:31:04;31.88;;;21.63;;
24567;SDS011;12731;52.182;8.716;2022-11-20T05:33:34;32.28;;;21.23;;
24567;SDS011;12731;52.182;8.716;2022-11-20T05:36:04;32.13;;;21.27;;
24567;SDS011;12731;52.182;8.716;2022-11-20T05:38:31;29.55;;;20.60;;
24567;SDS011;12731;52.182;8.716;2022-11-20T05:41:08;30.92;;;19.70;;
24567;SDS011;12731;52.182;8.716;2022-11-20T05:43:43;31.23;;;21.83;;
24567;SDS011;12731;52.182;8.716;2022-11-20T05:46:11;31.95;;;19.92;;
24567;SDS011;12731;52.182;8.716;2022-11-20T05:48:39;28.25;;;19.15;;
24567;SDS011;12731;52.182;8.716;2022-11-20T05:51:07;30.55;;;20.65;;
24567;SDS011;12731;52.182;8.716;2022-11-20T05:53:35;30.95;;;20.08;;
24567;SDS011;12731;52.182;8.716;2022-11-20T05:58:44;28.95;;;19.48;;
24567;SDS011;12731;52.182;8.716;2022-11-20T06:01:13;29.42;;;19.20;;
24567;SDS011;12731;52.182;8.716;2022-11-20T06:03:39;33.95;;;21.55;;
24567;SDS011;12731;52.182;8.716;2022-11-20T06:06:08;34.15;;;21.23;;
24567;SDS011;12731;52.182;8.716;2022-11-20T06:08:34;32.58;;;21.45;;
24567;SDS011;12731;52.182;8.716;2022-11-20T06:11:04;29.65;;;20.25;;
24567;SDS011;12731;52.182;8.716;2022-11-20T06:13:31;33.35;;;21.70;;
24567;SDS011;12731;52.182;8.716;2022-11-20T06:16:02;34.20;;;21.40;;
24567;SDS011;12731;52.182;8.716;2022-11-20T06:18:29;34.33;;;21.63;;
24567;SDS011;12731;52.182;8.716;2022-11-20T06:21:29;31.02;;;20.17;;
24567;SDS011;12731;52.182;8.716;2022-11-20T06:23:51;32.85;;;20.52;;
24567;SDS011;12731;52.182;8.716;2022-11-20T06:26:19;33.20;;;22.05;;
24567;SDS011;12731;52.182;8.716;2022-11-20T06:28:51;33.20;;;22.45;;
24567;SDS011;12731;52.182;8.716;2022-11-20T06:31:22;37.60;;;22.75;;
24567;SDS011;12731;52.182;8.716;2022-11-20T06:33:50;38.50;;;24.40;;
24567;SDS011;12731;52.182;8.716;2022-11-20T06:36:18;36.80;;;24.27;;
24567;SDS011;12731;52.182;8.716;2022-11-20T06:38:45;36.10;;;23.38;;
24567;SDS011;12731;52.182;8.716;2022-11-20T06:41:13;38.63;;;24.27;;
24567;SDS011;12731;52.182;8.716;2022-11-20T06:43:40;36.10;;;25.23;;
24567;SDS011;12731;52.182;8.716;2022-11-20T06:46:08;38.00;;;24.95;;
24567;SDS011;12731;52.182;8.716;2022-11-20T06:48:36;37.65;;;24.30;;
24567;SDS011;12731;52.182;8.716;2022-11-20T06:51:03;40.78;;;25.38;;
24567;SDS011;12731;52.182;8.716;2022-11-20T06:53:30;40.55;;;23.88;;
24567;SDS011;12731;52.182;8.716;2022-11-20T06:55:57;34.38;;;21.02;;
24567;SDS011;12731;52.182;8.716;2022-11-20T06:58:25;34.67;;;22.33;;
24567;SDS011;12731;52.182;8.716;2022-11-20T07:00:53;34.90;;;21.23;;
24567;SDS011;12731;52.182;8.716;2022-11-20T07:03:20;33.60;;;21.80;;
24567;SDS011;12731;52.182;8.716;2022-11-20T07:05:46;36.22;;;22.30;;
24567;SDS011;12731;52.182;8.716;2022-11-20T07:08:13;36.60;;;21.45;;
24567;SDS011;12731;52.182;8.716;2022-11-20T07:10:39;37.78;;;22.15;;
24567;SDS011;12731;52.182;8.716;2022-11-20T07:13:05;35.15;;;20.73;;
24567;SDS011;12731;52.182;8.716;2022-11-20T07:15:33;33.35;;;21.30;;
24567;SDS011;12731;52.182;8.716;2022-11-20T07:17:59;33.95;;;21.00;;
24567;SDS011;12731;52.182;8.716;2022-11-20T07:20:26;31.75;;;20.33;;
24567;SDS011;12731;52.182;8.716;2022-11-20T07:22:53;36.42;;;22.83;;
24567;SDS011;12731;52.182;8.716;2022-11-20T07:25:21;32.92;;;20.23;;
24567;SDS011;12731;52.182;8.716;2022-11-20T07:27:48;35.42;;;22.00;;
24567;SDS011;12731;52.182;8.716;2022-11-20T07:30:15;32.95;;;20.02;;
24567;SDS011;12731;52.182;8.716;2022-11-20T07:32:42;32.97;;;20.67;;
24567;SDS011;12731;52.182;8.716;2022-11-20T07:35:08;32.05;;;20.77;;
24567;SDS011;12731;52.182;8.716;2022-11-20T07:37:35;33.85;;;21.85;;
24567;SDS011;12731;52.182;8.716;2022-11-20T07:40:01;31.33;;;20.65;;
24567;SDS011;12731;52.182;8.716;2022-11-20T07:42:28;32.70;;;20.83;;
24567;SDS011;12731;52.182;8.716;2022-11-20T07:47:56;29.83;;;19.92;;
24567;SDS011;12731;52.182;8.716;2022-11-20T07:50:22;28.67;;;18.60;;
24567;SDS011;12731;52.182;8.716;2022-11-20T07:52:49;32.28;;;19.98;;
24567;SDS011;12731;52.182;8.716;2022-11-20T07:55:15;34.72;;;21.58;;
24567;SDS011;12731;52.182;8.716;2022-11-20T07:57:42;29.75;;;18.80;;
24567;SDS011;12731;52.182;8.716;2022-11-20T08:00:09;27.00;;;17.48;;
24567;SDS011;12731;52.182;8.716;2022-11-20T08:02:40;24.80;;;16.38;;
24567;SDS011;12731;52.182;8.716;2022-11-20T08:05:10;27.85;;;17.33;;
24567;SDS011;12731;52.182;8.716;2022-11-20T08:07:40;35.80;;;22.27;;
24567;SDS011;12731;52.182;8.716;2022-11-20T08:10:08;32.40;;;21.17;;
24567;SDS011;12731;52.182;8.716;2022-11-20T08:12:42;32.72;;;21.50;;
24567;SDS011;12731;52.182;8.716;2022-11-20T08:15:29;34.38;;;23.00;;
24567;SDS011;12731;52.182;8.716;2022-11-20T08:18:00;39.30;;;24.67;;
24567;SDS011;12731;52.182;8.716;2022-11-20T08:20:50;38.13;;;24.95;;
24567;SDS011;12731;52.182;8.716;2022-11-20T08:23:16;37.22;;;24.77;;
24567;SDS011;12731;52.182;8.716;2022-11-20T08:25:43;40.75;;;26.15;;
24567;SDS011;12731;52.182;8.716;2022-11-20T08:28:09;41.22;;;27.63;;
24567;SDS011;12731;52.182;8.716;2022-11-20T08:30:46;33.60;;;20.73;;
24567;SDS011;12731;52.182;8.716;2022-11-20T08:33:13;31.77;;;18.75;;
24567;SDS011;12731;52.182;8.716;2022-11-20T08:35:39;33.38;;;20.23;;
24567;SDS011;12731;52.182;8.716;2022-11-20T08:38:07;32.20;;;20.92;;
24567;SDS011;12731;52.182;8.716;2022-11-20T08:40:34;42.28;;;22.38;;
24567;SDS011;12731;52.182;8.716;2022-11-20T08:43:00;45.63;;;23.75;;
24567;SDS011;12731;52.182;8.716;2022-11-20T08:45:27;50.42;;;24.15;;
24567;SDS011;12731;52.182;8.716;2022-11-20T08:48:00;61.28;;;26.45;;
24567;SDS011;12731;52.182;8.716;2022-11-20T08:50:29;59.20;;;26.27;;
24567;SDS011;12731;52.182;8.716;2022-11-20T08:53:04;63.55;;;28.73;;
24567;SDS011;12731;52.182;8.716;2022-11-20T08:55:31;64.43;;;27.83;;
24567;SDS011;12731;52.182;8.716;2022-11-20T08:57:58;66.55;;;29.05;;
24567;SDS011;12731;52.182;8.716;2022-11-20T09:00:24;69.30;;;29.58;;
24567;SDS011;12731;52.182;8.716;2022-11-20T09:02:51;75.00;;;31.50;;
24567;SDS011;12731;52.182;8.716;2022-11-20T09:05:18;74.72;;;32.13;;
24567;SDS011;12731;52.182;8.716;2022-11-20T09:07:44;76.03;;;32.42;;
24567;SDS011;12731;52.182;8.716;2022-11-20T09:10:11;73.97;;;33.45;;
24567;SDS011;12731;52.182;8.716;2022-11-20T09:12:53;69.50;;;32.58;;
24567;SDS011;12731;52.182;8.716;2022-11-20T09:15:21;84.63;;;35.08;;
24567;SDS011;12731;52.182;8.716;2022-11-20T09:17:51;74.60;;;35.50;;
24567;SDS011;12731;52.182;8.716;2022-11-20T09:20:22;79.10;;;35.95;;
24567;SDS011;12731;52.182;8.716;2022-11-20T09:22:48;86.88;;;37.83;;
24567;SDS011;12731;52.182;8.716;2022-11-20T09:25:15;78.70;;;36.50;;
24567;SDS011;12731;52.182;8.716;2022-11-20T09:27:41;83.95;;;38.80;;
24567;SDS011;12731;52.182;8.716;2022-11-20T09:30:09;81.97;;;38.03;;
24567;SDS011;12731;52.182;8.716;2022-11-20T09:32:38;83.05;;;39.15;;
24567;SDS011;12731;52.182;8.716;2022-11-20T09:35:05;79.93;;;39.15;;
24567;SDS011;12731;52.182;8.716;2022-11-20T09:37:31;69.75;;;36.15;;
24567;SDS011;12731;52.182;8.716;2022-11-20T09:39:58;68.93;;;35.28;;
24567;SDS011;12731;52.182;8.716;2022-11-20T09:42:31;64.03;;;35.13;;
24567;SDS011;12731;52.182;8.716;2022-11-20T09:45:21;62.53;;;33.85;;
24567;SDS011;12731;52.182;8.716;2022-11-20T09:53:45;64.03;;;34.08;;
24567;SDS011;12731;52.182;8.716;2022-11-20T09:56:19;56.30;;;32.75;;
24567;SDS011;12731;52.182;8.716;2022-11-20T09:58:49;59.10;;;32.38;;
24567;SDS011;12731;52.182;8.716;2022-11-20T10:01:18;61.67;;;34.10;;
24567;SDS011;12731;52.182;8.716;2022-11-20T10:03:49;58.85;;;33.78;;
24567;SDS011;12731;52.182;8.716;2022-11-20T10:06:21;56.55;;;31.92;;
24567;SDS011;12731;52.182;8.716;2022-11-20T10:22:42;53.75;;;31.35;;
24567;SDS011;12731;52.182;8.716;2022-11-20T10:28:10;49.85;;;29.00;;
24567;SDS011;12731;52.182;8.716;2022-11-20T10:30:45;46.15;;;28.85;;
24567;SDS011;12731;52.182;8.716;2022-11-20T10:33:16;45.20;;;28.75;;
24567;SDS011;12731;52.182;8.716;2022-11-20T10:35:49;45.40;;;27.98;;
24567;SDS011;12731;52.182;8.716;2022-11-20T10:38:21;46.75;;;28.27;;
24567;SDS011;12731;52.182;8.716;2022-11-20T10:40:52;45.40;;;27.25;;
24567;SDS011;12731;52.182;8.716;2022-11-20T10:43:41;43.33;;;27.10;;
24567;SDS011;12731;52.182;8.716;2022-11-20T10:46:15;42.35;;;26.10;;
24567;SDS011;12731;52.182;8.716;2022-11-20T10:48:44;41.53;;;26.63;;
24567;SDS011;12731;52.182;8.716;2022-11-20T10:51:30;43.35;;;26.45;;
24567;SDS011;12731;52.182;8.716;2022-11-20T10:56:50;37.83;;;24.75;;
24567;SDS011;12731;52.182;8.716;2022-11-20T11:02:14;34.85;;;23.02;;
24567;SDS011;12731;52.182;8.716;2022-11-20T11:04:44;33.40;;;23.17;;
24567;SDS011;12731;52.182;8.716;2022-11-20T11:07:14;30.00;;;21.40;;
24567;SDS011;12731;52.182;8.716;2022-11-20T11:09:47;32.88;;;22.33;;
24567;SDS011;12731;52.182;8.716;2022-11-20T11:12:19;28.90;;;21.00;;
24567;SDS011;12731;52.182;8.716;2022-11-20T11:14:48;31.60;;;20.38;;
24567;SDS011;12731;52.182;8.716;2022-11-20T11:22:46;26.73;;;19.38;;
24567;SDS011;12731;52.182;8.716;2022-11-20T11:25:32;26.35;;;19.10;;
24567;SDS011;12731;52.182;8.716;2022-11-20T11:28:02;25.40;;;18.55;;
24567;SDS011;12731;52.182;8.716;2022-11-20T11:30:52;25.67;;;18.55;;
24567;SDS011;12731;52.182;8.716;2022-11-20T11:33:19;24.77;;;18.30;;
24567;SDS011;12731;52.182;8.716;2022-11-20T11:35:53;23.33;;;17.27;;
24567;SDS011;12731;52.182;8.716;2022-11-20T11:40:55;23.30;;;17.17;;
24567;SDS011;12731;52.182;8.716;2022-11-20T11:43:24;21.42;;;15.50;;
24567;SDS011;12731;52.182;8.716;2022-11-20T11:48:59;17.23;;;13.60;;
24567;SDS011;12731;52.182;8.716;2022-11-20T11:51:33;18.48;;;14.45;;
24567;SDS011;12731;52.182;8.716;2022-11-20T11:54:20;20.58;;;15.40;;
24567;SDS011;12731;52.182;8.716;2022-11-20T11:56:50;17.60;;;13.93;;
24567;SDS011;12731;52.182;8.716;2022-11-20T11:59:22;18.88;;;14.63;;
24567;SDS011;12731;52.182;8.716;2022-11-20T12:01:53;19.92;;;14.50;;
24567;SDS011;12731;52.182;8.716;2022-11-20T12:04:26;21.65;;;15.07;;
24567;SDS011;12731;52.182;8.716;2022-11-20T12:07:10;19.65;;;14.63;;
24567;SDS011;12731;52.182;8.716;2022-11-20T12:10:00;19.85;;;15.30;;
24567;SDS011;12731;52.182;8.716;2022-11-20T12:12:30;20.58;;;14.00;;
24567;SDS011;12731;52.182;8.716;2022-11-20T12:14:59;19.15;;;14.15;;
24567;SDS011;12731;52.182;8.716;2022-11-20T12:17:25;18.35;;;13.57;;
24567;SDS011;12731;52.182;8.716;2022-11-20T12:19:55;18.17;;;13.30;;
24567;SDS011;12731;52.182;8.716;2022-11-20T12:22:27;21.40;;;18.00;;
24567;SDS011;12731;52.182;8.716;2022-11-20T12:25:03;19.65;;;15.93;;
24567;SDS011;12731;52.182;8.716;2022-11-20T12:27:42;17.77;;;14.10;;
24567;SDS011;12731;52.182;8.716;2022-11-20T12:30:28;18.50;;;14.00;;
24567;SDS011;12731;52.182;8.716;2022-11-20T12:36:07;22.38;;;17.42;;
24567;SDS011;12731;52.182;8.716;2022-11-20T12:41:24;16.75;;;13.27;;
24567;SDS011;12731;52.182;8.716;2022-11-20T12:44:39;17.75;;;14.13;;
24567;SDS011;12731;52.182;8.716;2022-11-20T12:50:35;16.50;;;13.00;;
24567;SDS011;12731;52.182;8.716;2022-11-20T12:53:45;35.40;;;22.35;;
24567;SDS011;12731;52.182;8.716;2022-11-20T12:59:20;20.13;;;14.02;;
24567;SDS011;12731;52.182;8.716;2022-11-20T13:01:50;16.27;;;13.13;;
24567;SDS011;12731;52.182;8.716;2022-11-20T13:07:05;14.90;;;11.48;;
24567;SDS011;12731;52.182;8.716;2022-11-20T13:09:35;14.73;;;11.38;;
24567;SDS011;12731;52.182;8.716;2022-11-20T13:12:11;13.30;;;9.73;;
24567;SDS011;12731;52.182;8.716;2022-11-20T13:15:08;12.00;;;8.70;;
24567;SDS011;12731;52.182;8.716;2022-11-20T13:17:48;11.30;;;8.93;;
24567;SDS011;12731;52.182;8.716;2022-11-20T13:20:18;12.07;;;9.05;;
24567;SDS011;12731;52.182;8.716;2022-11-20T13:25:25;11.05;;;8.80;;
24567;SDS011;12731;52.182;8.716;2022-11-20T13:27:53;12.23;;;8.95;;
24567;SDS011;12731;52.182;8.716;2022-11-20T13:30:21;11.32;;;9.20;;
24567;SDS011;12731;52.182;8.716;2022-11-20T13:32:56;13.10;;;9.00;;
24567;SDS011;12731;52.182;8.716;2022-11-20T13:35:33;11.98;;;9.20;;
24567;SDS011;12731;52.182;8.716;2022-11-20T13:38:05;12.10;;;9.07;;
24567;SDS011;12731;52.182;8.716;2022-11-20T13:40:32;10.98;;;8.30;;
24567;SDS011;12731;52.182;8.716;2022-11-20T13:45:53;11.20;;;8.25;;
24567;SDS011;12731;52.182;8.716;2022-11-20T13:48:25;11.15;;;7.55;;
24567;SDS011;12731;52.182;8.716;2022-11-20T13:53:33;9.98;;;7.80;;
24567;SDS011;12731;52.182;8.716;2022-11-20T13:59:02;10.25;;;7.45;;
24567;SDS011;12731;52.182;8.716;2022-11-20T14:01:51;12.27;;;8.80;;
24567;SDS011;12731;52.182;8.716;2022-11-20T14:04:20;10.18;;;7.80;;
24567;SDS011;12731;52.182;8.716;2022-11-20T14:06:52;11.38;;;7.90;;
24567;SDS011;12731;52.182;8.716;2022-11-20T14:09:25;10.38;;;7.72;;
24567;SDS011;12731;52.182;8.716;2022-11-20T14:11:53;11.45;;;7.95;;
24567;SDS011;12731;52.182;8.716;2022-11-20T14:14:21;10.93;;;7.38;;
24567;SDS011;12731;52.182;8.716;2022-11-20T14:16:49;12.80;;;8.70;;
24567;SDS011;12731;52.182;8.716;2022-11-20T14:19:21;11.90;;;7.85;;
24567;SDS011;12731;52.182;8.716;2022-11-20T14:21:52;10.88;;;7.88;;
24567;SDS011;12731;52.182;8.716;2022-11-20T14:24:39;10.80;;;7.82;;
24567;SDS011;12731;52.182;8.716;2022-11-20T14:27:19;10.15;;;7.45;;
24567;SDS011;12731;52.182;8.716;2022-11-20T14:29:47;12.55;;;8.35;;
24567;SDS011;12731;52.182;8.716;2022-11-20T14:32:16;22.70;;;14.63;;
24567;SDS011;12731;52.182;8.716;2022-11-20T14:34:44;23.33;;;15.10;;
24567;SDS011;12731;52.182;8.716;2022-11-20T14:37:12;20.40;;;12.73;;
24567;SDS011;12731;52.182;8.716;2022-11-20T14:39:47;19.17;;;12.88;;
24567;SDS011;12731;52.182;8.716;2022-11-20T14:44:42;13.13;;;9.65;;
24567;SDS011;12731;52.182;8.716;2022-11-20T14:47:09;13.65;;;10.07;;
24567;SDS011;12731;52.182;8.716;2022-11-20T14:49:38;13.40;;;9.90;;
24567;SDS011;12731;52.182;8.716;2022-11-20T14:52:13;13.35;;;9.65;;
24567;SDS011;12731;52.182;8.716;2022-11-20T14:54:48;13.68;;;10.00;;
24567;SDS011;12731;52.182;8.716;2022-11-20T15:02:40;14.90;;;10.25;;
24567;SDS011;12731;52.182;8.716;2022-11-20T15:05:08;13.63;;;9.90;;
24567;SDS011;12731;52.182;8.716;2022-11-20T15:07:36;13.57;;;9.70;;
24567;SDS011;12731;52.182;8.716;2022-11-20T15:10:11;12.63;;;8.85;;
24567;SDS011;12731;52.182;8.716;2022-11-20T15:12:46;14.75;;;9.10;;
24567;SDS011;12731;52.182;8.716;2022-11-20T15:15:17;16.30;;;10.05;;
24567;SDS011;12731;52.182;8.716;2022-11-20T15:17:59;14.35;;;10.05;;
24567;SDS011;12731;52.182;8.716;2022-11-20T15:20:28;13.57;;;9.57;;
24567;SDS011;12731;52.182;8.716;2022-11-20T15:22:57;14.48;;;9.98;;
24567;SDS011;12731;52.182;8.716;2022-11-20T15:25:23;16.50;;;10.48;;
24567;SDS011;12731;52.182;8.716;2022-11-20T15:27:56;14.00;;;10.05;;
24567;SDS011;12731;52.182;8.716;2022-11-20T15:32:49;14.43;;;9.57;;
24567;SDS011;12731;52.182;8.716;2022-11-20T15:35:16;16.65;;;10.25;;
24567;SDS011;12731;52.182;8.716;2022-11-20T15:37:42;17.20;;;11.13;;
24567;SDS011;12731;52.182;8.716;2022-11-20T15:40:09;20.85;;;12.77;;
24567;SDS011;12731;52.182;8.716;2022-11-20T15:42:36;21.83;;;14.63;;
24567;SDS011;12731;52.182;8.716;2022-11-20T15:45:02;25.13;;;15.82;;
24567;SDS011;12731;52.182;8.716;2022-11-20T15:47:30;26.65;;;16.63;;
24567;SDS011;12731;52.182;8.716;2022-11-20T15:49:58;25.52;;;15.90;;
24567;SDS011;12731;52.182;8.716;2022-11-20T15:52:25;21.38;;;14.23;;
24567;SDS011;12731;52.182;8.716;2022-11-20T15:54:55;25.63;;;15.85;;
24567;SDS011;12731;52.182;8.716;2022-11-20T15:57:21;28.20;;;16.17;;
24567;SDS011;12731;52.182;8.716;2022-11-20T15:59:48;42.15;;;21.35;;
24567;SDS011;12731;52.182;8.716;2022-11-20T16:02:15;38.47;;;19.90;;
24567;SDS011;12731;52.182;8.716;2022-11-20T16:04:44;32.65;;;17.83;;
24567;SDS011;12731;52.182;8.716;2022-11-20T16:07:11;29.08;;;16.25;;